sensor_id;sensor_type;location;lat;lon;timestamp;pressure;altitude;pressure_sealevel;temperature
48854;BMP280;34673;52.808;17.856;2024-03-08T00:00:08;101337.06;;;0.92
48854;BMP280;34673;52.808;17.856;2024-03-08T00:02:47;101333.56;;;0.89
48854;BMP280;34673;52.808;17.856;2024-03-08T00:05:14;101337.91;;;0.92
48854;BMP280;34673;52.808;17.856;2024-03-08T00:07:42;101323.38;;;0.89
48854;BMP280;34673;52.808;17.856;2024-03-08T00:10:12;101328.63;;;0.93
48854;BMP280;34673;52.808;17.856;2024-03-08T00:12:42;101329.34;;;0.90
48854;BMP280;34673;52.808;17.856;2024-03-08T00:15:10;101331.19;;;0.93
48854;BMP280;34673;52.808;17.856;2024-03-08T00:17:41;101323.53;;;0.93
48854;BMP280;34673;52.808;17.856;2024-03-08T00:20:09;101321.78;;;0.92
48854;BMP280;34673;52.808;17.856;2024-03-08T00:22:39;101321.56;;;0.87
48854;BMP280;34673;52.808;17.856;2024-03-08T00:25:08;101316.13;;;0.79
48854;BMP280;34673;52.808;17.856;2024-03-08T00:27:39;101323.09;;;0.83
48854;BMP280;34673;52.808;17.856;2024-03-08T00:30:07;101326.44;;;0.82
48854;BMP280;34673;52.808;17.856;2024-03-08T00:32:35;101329.00;;;0.82
48854;BMP280;34673;52.808;17.856;2024-03-08T00:35:04;101315.16;;;0.77
48854;BMP280;34673;52.808;17.856;2024-03-08T00:37:34;101318.34;;;0.73
48854;BMP280;34673;52.808;17.856;2024-03-08T00:40:01;101306.88;;;0.63
48854;BMP280;34673;52.808;17.856;2024-03-08T00:42:29;101315.25;;;0.61
48854;BMP280;34673;52.808;17.856;2024-03-08T00:44:56;101315.25;;;0.61
48854;BMP280;34673;52.808;17.856;2024-03-08T00:47:25;101316.84;;;0.59
48854;BMP280;34673;52.808;17.856;2024-03-08T00:49:52;101314.06;;;0.54
48854;BMP280;34673;52.808;17.856;2024-03-08T00:52:20;101315.69;;;0.52
48854;BMP280;34673;52.808;17.856;2024-03-08T00:54:47;101317.56;;;0.56
48854;BMP280;34673;52.808;17.856;2024-03-08T00:57:14;101317.13;;;0.65
48854;BMP280;34673;52.808;17.856;2024-03-08T00:59:41;101317.94;;;0.64
48854;BMP280;34673;52.808;17.856;2024-03-08T01:02:09;101318.06;;;0.67
48854;BMP280;34673;52.808;17.856;2024-03-08T01:04:37;101312.34;;;0.71
48854;BMP280;34673;52.808;17.856;2024-03-08T01:07:04;101314.06;;;0.72
48854;BMP280;34673;52.808;17.856;2024-03-08T01:09:32;101313.34;;;0.75
48854;BMP280;34673;52.808;17.856;2024-03-08T01:11:59;101290.34;;;0.73
48854;BMP280;34673;52.808;17.856;2024-03-08T01:14:28;101305.94;;;0.79
48854;BMP280;34673;52.808;17.856;2024-03-08T01:16:58;101300.84;;;0.79
48854;BMP280;34673;52.808;17.856;2024-03-08T01:19:26;101296.63;;;0.80
48854;BMP280;34673;52.808;17.856;2024-03-08T01:21:53;101294.13;;;0.81
48854;BMP280;34673;52.808;17.856;2024-03-08T01:24:23;101294.06;;;0.80
48854;BMP280;34673;52.808;17.856;2024-03-08T01:26:51;101289.84;;;0.80
48854;BMP280;34673;52.808;17.856;2024-03-08T01:29:19;101292.25;;;0.77
48854;BMP280;34673;52.808;17.856;2024-03-08T01:31:46;101289.03;;;0.81
48854;BMP280;34673;52.808;17.856;2024-03-08T01:34:13;101290.50;;;0.76
48854;BMP280;34673;52.808;17.856;2024-03-08T01:36:40;101290.94;;;0.68
48854;BMP280;34673;52.808;17.856;2024-03-08T01:39:07;101289.50;;;0.55
48854;BMP280;34673;52.808;17.856;2024-03-08T01:41:35;101289.03;;;0.46
48854;BMP280;34673;52.808;17.856;2024-03-08T01:44:03;101287.03;;;0.38
48854;BMP280;34673;52.808;17.856;2024-03-08T01:46:31;101291.03;;;0.33
48854;BMP280;34673;52.808;17.856;2024-03-08T01:49:00;101290.06;;;0.31
48854;BMP280;34673;52.808;17.856;2024-03-08T01:51:29;101286.72;;;0.32
48854;BMP280;34673;52.808;17.856;2024-03-08T01:53:59;101284.16;;;0.32
48854;BMP280;34673;52.808;17.856;2024-03-08T01:56:28;101282.53;;;0.33
48854;BMP280;34673;52.808;17.856;2024-03-08T01:58:55;101282.56;;;0.34
48854;BMP280;34673;52.808;17.856;2024-03-08T02:01:23;101266.44;;;0.34
48854;BMP280;34673;52.808;17.856;2024-03-08T02:03:50;101273.22;;;0.33
48854;BMP280;34673;52.808;17.856;2024-03-08T02:06:17;101267.16;;;0.31
48854;BMP280;34673;52.808;17.856;2024-03-08T02:08:45;101273.34;;;0.36
48854;BMP280;34673;52.808;17.856;2024-03-08T02:11:13;101272.34;;;0.33
48854;BMP280;34673;52.808;17.856;2024-03-08T02:13:41;101269.63;;;0.30
48854;BMP280;34673;52.808;17.856;2024-03-08T02:16:08;101262.88;;;0.30
48854;BMP280;34673;52.808;17.856;2024-03-08T02:18:36;101273.34;;;0.36
48854;BMP280;34673;52.808;17.856;2024-03-08T02:21:05;101270.13;;;0.40
48854;BMP280;34673;52.808;17.856;2024-03-08T02:23:33;101271.91;;;0.41
48854;BMP280;34673;52.808;17.856;2024-03-08T02:26:01;101261.72;;;0.41
48854;BMP280;34673;52.808;17.856;2024-03-08T02:28:28;101264.75;;;0.34
48854;BMP280;34673;52.808;17.856;2024-03-08T02:30:56;101264.84;;;0.36
48854;BMP280;34673;52.808;17.856;2024-03-08T02:33:27;101259.66;;;0.34
48854;BMP280;34673;52.808;17.856;2024-03-08T02:35:54;101264.47;;;0.28
48854;BMP280;34673;52.808;17.856;2024-03-08T02:38:23;101262.56;;;0.24
48854;BMP280;34673;52.808;17.856;2024-03-08T02:40:53;101260.53;;;0.17
48854;BMP280;34673;52.808;17.856;2024-03-08T02:43:22;101259.69;;;0.16
48854;BMP280;34673;52.808;17.856;2024-03-08T02:45:50;101255.31;;;0.14
48854;BMP280;34673;52.808;17.856;2024-03-08T02:48:20;101260.41;;;0.14
48854;BMP280;34673;52.808;17.856;2024-03-08T02:50:49;101258.50;;;0.10
48854;BMP280;34673;52.808;17.856;2024-03-08T02:53:18;101251.19;;;-0.01
48854;BMP280;34673;52.808;17.856;2024-03-08T02:55:46;101263.91;;;-0.01
48854;BMP280;34673;52.808;17.856;2024-03-08T02:58:13;101252.34;;;-0.12
48854;BMP280;34673;52.808;17.856;2024-03-08T03:00:42;101243.63;;;-0.17
48854;BMP280;34673;52.808;17.856;2024-03-08T03:03:12;101253.94;;;-0.14
48854;BMP280;34673;52.808;17.856;2024-03-08T03:05:39;101243.75;;;-0.14
48854;BMP280;34673;52.808;17.856;2024-03-08T03:08:14;101245.38;;;-0.16
48854;BMP280;34673;52.808;17.856;2024-03-08T03:10:44;101251.25;;;-0.17
48854;BMP280;34673;52.808;17.856;2024-03-08T03:13:11;101248.56;;;-0.20
48854;BMP280;34673;52.808;17.856;2024-03-08T03:15:39;101245.06;;;-0.22
48854;BMP280;34673;52.808;17.856;2024-03-08T03:18:08;101244.34;;;-0.19
48854;BMP280;34673;52.808;17.856;2024-03-08T03:20:36;101246.25;;;-0.15
48854;BMP280;34673;52.808;17.856;2024-03-08T03:23:09;101245.53;;;-0.13
48854;BMP280;34673;52.808;17.856;2024-03-08T03:25:36;101242.19;;;-0.12
48854;BMP280;34673;52.808;17.856;2024-03-08T03:28:05;101232.72;;;-0.14
48854;BMP280;34673;52.808;17.856;2024-03-08T03:30:35;101232.81;;;-0.13
48854;BMP280;34673;52.808;17.856;2024-03-08T03:33:02;101235.34;;;-0.13
48854;BMP280;34673;52.808;17.856;2024-03-08T03:35:35;101242.03;;;-0.15
48854;BMP280;34673;52.808;17.856;2024-03-08T03:38:04;101241.06;;;-0.17
48854;BMP280;34673;52.808;17.856;2024-03-08T03:40:38;101238.38;;;-0.20
48854;BMP280;34673;52.808;17.856;2024-03-08T03:43:06;101241.59;;;-0.24
48854;BMP280;34673;52.808;17.856;2024-03-08T03:45:34;101241.00;;;-0.18
48854;BMP280;34673;52.808;17.856;2024-03-08T03:48:07;101234.00;;;-0.23
48854;BMP280;34673;52.808;17.856;2024-03-08T03:50:38;101241.72;;;-0.21
48854;BMP280;34673;52.808;17.856;2024-03-08T03:53:06;101241.59;;;-0.24
48854;BMP280;34673;52.808;17.856;2024-03-08T03:55:37;101226.00;;;-0.30
48854;BMP280;34673;52.808;17.856;2024-03-08T03:58:08;101230.16;;;-0.32
48854;BMP280;34673;52.808;17.856;2024-03-08T04:00:38;101236.16;;;-0.30
48854;BMP280;34673;52.808;17.856;2024-03-08T04:03:05;101232.84;;;-0.29
48854;BMP280;34673;52.808;17.856;2024-03-08T04:05:33;101232.84;;;-0.29
48854;BMP280;34673;52.808;17.856;2024-03-08T04:08:00;101229.22;;;-0.34
48854;BMP280;34673;52.808;17.856;2024-03-08T04:10:27;101230.63;;;-0.39
48854;BMP280;34673;52.808;17.856;2024-03-08T04:12:54;101230.50;;;-0.42
48854;BMP280;34673;52.808;17.856;2024-03-08T04:15:23;101230.34;;;-0.46
48854;BMP280;34673;52.808;17.856;2024-03-08T04:17:50;101226.69;;;-0.51
48854;BMP280;34673;52.808;17.856;2024-03-08T04:20:18;101230.19;;;-0.49
48854;BMP280;34673;52.808;17.856;2024-03-08T04:22:45;101224.00;;;-0.54
48854;BMP280;34673;52.808;17.856;2024-03-08T04:25:13;101231.91;;;-0.48
48854;BMP280;34673;52.808;17.856;2024-03-08T04:27:41;101231.78;;;-0.51
48854;BMP280;34673;52.808;17.856;2024-03-08T04:30:08;101235.09;;;-0.52
48854;BMP280;34673;52.808;17.856;2024-03-08T04:32:36;101224.63;;;-0.58
48854;BMP280;34673;52.808;17.856;2024-03-08T04:35:03;101223.19;;;-0.53
48854;BMP280;34673;52.808;17.856;2024-03-08T04:37:31;101224.31;;;-0.48
48854;BMP280;34673;52.808;17.856;2024-03-08T04:39:58;101226.84;;;-0.48
48854;BMP280;34673;52.808;17.856;2024-03-08T04:42:28;101229.78;;;-0.40
48854;BMP280;34673;52.808;17.856;2024-03-08T04:44:56;101230.63;;;-0.39
48854;BMP280;34673;52.808;17.856;2024-03-08T04:47:25;101227.13;;;-0.41
48854;BMP280;34673;52.808;17.856;2024-03-08T04:49:52;101221.03;;;-0.45
48854;BMP280;34673;52.808;17.856;2024-03-08T04:52:20;101227.28;;;-0.38
48854;BMP280;34673;52.808;17.856;2024-03-08T04:54:49;101230.63;;;-0.39
48854;BMP280;34673;52.808;17.856;2024-03-08T04:57:16;101231.50;;;-0.39
48854;BMP280;34673;52.808;17.856;2024-03-08T04:59:46;101230.78;;;-0.36
48854;BMP280;34673;52.808;17.856;2024-03-08T05:02:14;101222.22;;;-0.38
48854;BMP280;34673;52.808;17.856;2024-03-08T05:04:41;101226.50;;;-0.37
48854;BMP280;34673;52.808;17.856;2024-03-08T05:07:10;101230.63;;;-0.39
48854;BMP280;34673;52.808;17.856;2024-03-08T05:09:37;101223.81;;;-0.40
48854;BMP280;34673;52.808;17.856;2024-03-08T05:12:05;101214.94;;;-0.49
48854;BMP280;34673;52.808;17.856;2024-03-08T05:14:32;101223.19;;;-0.53
48854;BMP280;34673;52.808;17.856;2024-03-08T05:16:59;101217.97;;;-0.56
48854;BMP280;34673;52.808;17.856;2024-03-08T05:19:27;101222.88;;;-0.59
48854;BMP280;34673;52.808;17.856;2024-03-08T05:21:56;101222.59;;;-0.65
48854;BMP280;34673;52.808;17.856;2024-03-08T05:24:23;101213.84;;;-0.70
48854;BMP280;34673;52.808;17.856;2024-03-08T05:26:50;101219.94;;;-0.67
48854;BMP280;34673;52.808;17.856;2024-03-08T05:29:17;101220.75;;;-0.68
48854;BMP280;34673;52.808;17.856;2024-03-08T05:31:50;101224.88;;;-0.70
48854;BMP280;34673;52.808;17.856;2024-03-08T05:34:19;101224.88;;;-0.70
48854;BMP280;34673;52.808;17.856;2024-03-08T05:36:48;101225.59;;;-0.72
48854;BMP280;34673;52.808;17.856;2024-03-08T05:39:19;101225.59;;;-0.72
48854;BMP280;34673;52.808;17.856;2024-03-08T05:41:47;101214.56;;;-0.73
48854;BMP280;34673;52.808;17.856;2024-03-08T05:44:14;101207.81;;;-0.72
48854;BMP280;34673;52.808;17.856;2024-03-08T05:46:44;101208.91;;;-0.67
48854;BMP280;34673;52.808;17.856;2024-03-08T05:49:14;101211.31;;;-0.70
48854;BMP280;34673;52.808;17.856;2024-03-08T05:51:42;101217.50;;;-0.65
48854;BMP280;34673;52.808;17.856;2024-03-08T05:54:11;101220.81;;;-0.66
48854;BMP280;34673;52.808;17.856;2024-03-08T05:56:43;101213.84;;;-0.70
48854;BMP280;34673;52.808;17.856;2024-03-08T05:59:12;101222.59;;;-0.65
48854;BMP280;34673;52.808;17.856;2024-03-08T06:01:40;101213.84;;;-0.70
48854;BMP280;34673;52.808;17.856;2024-03-08T06:04:09;101217.16;;;-0.71
48854;BMP280;34673;52.808;17.856;2024-03-08T06:06:39;101219.84;;;-0.68
48854;BMP280;34673;52.808;17.856;2024-03-08T06:09:07;101220.66;;;-0.69
48854;BMP280;34673;52.808;17.856;2024-03-08T06:11:44;101217.16;;;-0.71
48854;BMP280;34673;52.808;17.856;2024-03-08T06:14:12;101215.75;;;-0.66
48854;BMP280;34673;52.808;17.856;2024-03-08T06:16:39;101210.50;;;-0.69
48854;BMP280;34673;52.808;17.856;2024-03-08T06:19:06;101217.31;;;-0.68
48854;BMP280;34673;52.808;17.856;2024-03-08T06:21:33;101221.13;;;-0.60
48854;BMP280;34673;52.808;17.856;2024-03-08T06:24:00;101219.25;;;-0.64
48854;BMP280;34673;52.808;17.856;2024-03-08T06:26:28;101219.09;;;-0.67
48854;BMP280;34673;52.808;17.856;2024-03-08T06:28:57;101226.22;;;-0.60
48854;BMP280;34673;52.808;17.856;2024-03-08T06:31:24;101217.66;;;-0.62
48854;BMP280;34673;52.808;17.856;2024-03-08T06:33:51;101223.19;;;-0.53
48854;BMP280;34673;52.808;17.856;2024-03-08T06:36:23;101223.34;;;-0.50
48854;BMP280;34673;52.808;17.856;2024-03-08T06:38:51;101222.94;;;-0.41
48854;BMP280;34673;52.808;17.856;2024-03-08T06:41:18;101219.75;;;-0.37
48854;BMP280;34673;52.808;17.856;2024-03-08T06:43:46;101221.56;;;-0.34
48854;BMP280;34673;52.808;17.856;2024-03-08T06:46:15;101220.16;;;-0.29
48854;BMP280;34673;52.808;17.856;2024-03-08T06:48:42;101214.53;;;-0.22
48854;BMP280;34673;52.808;17.856;2024-03-08T06:51:10;101223.59;;;-0.11
48854;BMP280;34673;52.808;17.856;2024-03-08T06:53:38;101221.19;;;-0.08
48854;BMP280;34673;52.808;17.856;2024-03-08T06:56:06;101209.25;;;-0.09
48854;BMP280;34673;52.808;17.856;2024-03-08T06:58:35;101220.69;;;-0.01
48854;BMP280;34673;52.808;17.856;2024-03-08T07:01:02;101215.00;;;0.05
48854;BMP280;34673;52.808;17.856;2024-03-08T07:03:31;101217.78;;;0.10
48854;BMP280;34673;52.808;17.856;2024-03-08T07:05:59;101222.44;;;0.18
48854;BMP280;34673;52.808;17.856;2024-03-08T07:08:30;101216.75;;;0.24
48854;BMP280;34673;52.808;17.856;2024-03-08T07:10:58;101223.91;;;0.31
48854;BMP280;34673;52.808;17.856;2024-03-08T07:13:26;101222.50;;;0.38
48854;BMP280;34673;52.808;17.856;2024-03-08T07:15:56;101221.13;;;0.44
48854;BMP280;34673;52.808;17.856;2024-03-08T07:18:23;101216.31;;;0.51
48854;BMP280;34673;52.808;17.856;2024-03-08T07:20:51;101215.00;;;0.59
48854;BMP280;34673;52.808;17.856;2024-03-08T07:23:18;101212.81;;;0.66
48854;BMP280;34673;52.808;17.856;2024-03-08T07:26:04;101216.66;;;0.76
48854;BMP280;34673;52.808;17.856;2024-03-08T07:28:31;101212.63;;;0.81
48854;BMP280;34673;52.808;17.856;2024-03-08T07:30:58;101216.38;;;0.89
48854;BMP280;34673;52.808;17.856;2024-03-08T07:33:44;101216.38;;;0.89
48854;BMP280;34673;52.808;17.856;2024-03-08T07:36:11;101211.84;;;1.02
48854;BMP280;34673;52.808;17.856;2024-03-08T07:38:39;101215.53;;;1.08
48854;BMP280;34673;52.808;17.856;2024-03-08T07:41:06;101209.91;;;1.16
48854;BMP280;34673;52.808;17.856;2024-03-08T07:43:33;101205.97;;;1.22
48854;BMP280;34673;52.808;17.856;2024-03-08T07:46:00;101204.75;;;1.33
48854;BMP280;34673;52.808;17.856;2024-03-08T07:48:27;101207.81;;;1.46
48854;BMP280;34673;52.808;17.856;2024-03-08T07:50:55;101199.94;;;1.61
48854;BMP280;34673;52.808;17.856;2024-03-08T07:53:22;101200.69;;;1.79
48854;BMP280;34673;52.808;17.856;2024-03-08T07:55:51;101200.69;;;2.00
48854;BMP280;34673;52.808;17.856;2024-03-08T07:58:18;101199.94;;;2.24
48854;BMP280;34673;52.808;17.856;2024-03-08T08:00:46;101204.09;;;2.44
48854;BMP280;34673;52.808;17.856;2024-03-08T08:03:13;101197.25;;;2.65
48854;BMP280;34673;52.808;17.856;2024-03-08T08:05:40;101198.88;;;2.86
48854;BMP280;34673;52.808;17.856;2024-03-08T08:08:08;101196.19;;;3.05
48854;BMP280;34673;52.808;17.856;2024-03-08T08:10:38;101196.94;;;3.27
48854;BMP280;34673;52.808;17.856;2024-03-08T08:13:06;101188.88;;;3.40
48854;BMP280;34673;52.808;17.856;2024-03-08T08:15:33;101193.81;;;3.60
48854;BMP280;34673;52.808;17.856;2024-03-08T08:18:03;101182.97;;;3.67
48854;BMP280;34673;52.808;17.856;2024-03-08T08:20:33;101188.56;;;3.82
48854;BMP280;34673;52.808;17.856;2024-03-08T08:23:00;101193.13;;;3.91
48854;BMP280;34673;52.808;17.856;2024-03-08T08:25:28;101180.56;;;3.98
48854;BMP280;34673;52.808;17.856;2024-03-08T08:27:55;101180.97;;;4.11
48854;BMP280;34673;52.808;17.856;2024-03-08T08:30:22;101181.34;;;4.23
48854;BMP280;34673;52.808;17.856;2024-03-08T08:32:49;101178.41;;;4.39
48854;BMP280;34673;52.808;17.856;2024-03-08T08:35:17;101179.91;;;4.60
48854;BMP280;34673;52.808;17.856;2024-03-08T08:37:46;101181.16;;;4.74
48854;BMP280;34673;52.808;17.856;2024-03-08T08:40:14;101175.56;;;4.87
48854;BMP280;34673;52.808;17.856;2024-03-08T08:42:42;101173.50;;;5.06
48854;BMP280;34673;52.808;17.856;2024-03-08T08:45:10;101168.13;;;5.28
48854;BMP280;34673;52.808;17.856;2024-03-08T08:47:44;101164.22;;;5.43
48854;BMP280;34673;52.808;17.856;2024-03-08T08:50:13;101168.88;;;5.58
48854;BMP280;34673;52.808;17.856;2024-03-08T08:52:40;101174.56;;;5.79
48854;BMP280;34673;52.808;17.856;2024-03-08T08:55:07;101171.69;;;6.00
48854;BMP280;34673;52.808;17.856;2024-03-08T08:57:35;101172.88;;;6.14
48854;BMP280;34673;52.808;17.856;2024-03-08T09:00:03;101173.06;;;6.24
48854;BMP280;34673;52.808;17.856;2024-03-08T09:02:42;101159.59;;;6.34
48854;BMP280;34673;52.808;17.856;2024-03-08T09:05:10;101161.59;;;6.47
48854;BMP280;34673;52.808;17.856;2024-03-08T09:07:38;101154.97;;;6.58
48854;BMP280;34673;52.808;17.856;2024-03-08T09:10:06;101146.63;;;6.69
48854;BMP280;34673;52.808;17.856;2024-03-08T09:12:39;101146.88;;;6.81
48854;BMP280;34673;52.808;17.856;2024-03-08T09:15:07;101140.16;;;6.89
48854;BMP280;34673;52.808;17.856;2024-03-08T09:17:40;101143.84;;;7.00
48854;BMP280;34673;52.808;17.856;2024-03-08T09:20:09;101145.56;;;7.01
48854;BMP280;34673;52.808;17.856;2024-03-08T09:22:45;101132.81;;;7.07
48854;BMP280;34673;52.808;17.856;2024-03-08T09:25:13;101137.56;;;7.33
48854;BMP280;34673;52.808;17.856;2024-03-08T09:27:40;101142.91;;;7.45
48854;BMP280;34673;52.808;17.856;2024-03-08T09:30:08;101149.88;;;7.49
48854;BMP280;34673;52.808;17.856;2024-03-08T09:32:35;101144.88;;;7.59
48854;BMP280;34673;52.808;17.856;2024-03-08T09:35:04;101144.97;;;7.63
48854;BMP280;34673;52.808;17.856;2024-03-08T09:37:35;101145.72;;;7.59
48854;BMP280;34673;52.808;17.856;2024-03-08T09:40:03;101143.09;;;7.54
48854;BMP280;34673;52.808;17.856;2024-03-08T09:42:37;101136.97;;;7.48
48854;BMP280;34673;52.808;17.856;2024-03-08T09:45:11;101144.06;;;7.61
48854;BMP280;34673;52.808;17.856;2024-03-08T09:47:45;101134.78;;;7.71
48854;BMP280;34673;52.808;17.856;2024-03-08T09:50:12;101135.78;;;7.81
48854;BMP280;34673;52.808;17.856;2024-03-08T09:52:40;101134.97;;;7.83
48854;BMP280;34673;52.808;17.856;2024-03-08T09:55:07;101134.91;;;7.80
48854;BMP280;34673;52.808;17.856;2024-03-08T09:57:39;101133.03;;;7.70
48854;BMP280;34673;52.808;17.856;2024-03-08T10:00:06;101128.09;;;7.82
48854;BMP280;34673;52.808;17.856;2024-03-08T10:02:46;101130.06;;;7.98
48854;BMP280;34673;52.808;17.856;2024-03-08T10:05:13;101122.50;;;8.09
48854;BMP280;34673;52.808;17.856;2024-03-08T10:07:40;101123.56;;;8.25
48854;BMP280;34673;52.808;17.856;2024-03-08T10:10:08;101122.75;;;8.29
48854;BMP280;34673;52.808;17.856;2024-03-08T10:12:35;101120.22;;;8.32
48854;BMP280;34673;52.808;17.856;2024-03-08T10:15:03;101118.63;;;8.40
48854;BMP280;34673;52.808;17.856;2024-03-08T10:17:32;101120.47;;;8.48
48854;BMP280;34673;52.808;17.856;2024-03-08T10:19:59;101117.03;;;8.49
48854;BMP280;34673;52.808;17.856;2024-03-08T10:22:27;101108.50;;;8.53
48854;BMP280;34673;52.808;17.856;2024-03-08T10:24:56;101117.09;;;8.55
48854;BMP280;34673;52.808;17.856;2024-03-08T10:27:23;101109.22;;;8.44
48854;BMP280;34673;52.808;17.856;2024-03-08T10:29:51;101116.97;;;8.46
48854;BMP280;34673;52.808;17.856;2024-03-08T10:32:19;101106.72;;;8.49
48854;BMP280;34673;52.808;17.856;2024-03-08T10:34:47;101112.03;;;8.61
48854;BMP280;34673;52.808;17.856;2024-03-08T10:37:21;101103.41;;;8.59
48854;BMP280;34673;52.808;17.856;2024-03-08T10:40:03;101108.63;;;8.63
48854;BMP280;34673;52.808;17.856;2024-03-08T10:42:52;101112.09;;;8.67
48854;BMP280;34673;52.808;17.856;2024-03-08T10:48:11;101105.25;;;8.69
48854;BMP280;34673;52.808;17.856;2024-03-08T10:50:44;101098.22;;;8.56
48854;BMP280;34673;52.808;17.856;2024-03-08T10:53:14;101099.91;;;8.54
48854;BMP280;34673;52.808;17.856;2024-03-08T10:55:42;101102.53;;;8.60
48854;BMP280;34673;52.808;17.856;2024-03-08T10:58:10;101099.91;;;8.54
48854;BMP280;34673;52.808;17.856;2024-03-08T11:00:38;101084.13;;;8.31
48854;BMP280;34673;52.808;17.856;2024-03-08T11:03:05;101091.81;;;8.29
48854;BMP280;34673;52.808;17.856;2024-03-08T11:05:36;101092.88;;;8.43
48854;BMP280;34673;52.808;17.856;2024-03-08T11:08:20;101086.25;;;8.61
48854;BMP280;34673;52.808;17.856;2024-03-08T11:10:51;101076.91;;;8.72
48854;BMP280;34673;52.808;17.856;2024-03-08T11:13:35;101076.03;;;8.73
48854;BMP280;34673;52.808;17.856;2024-03-08T11:16:10;101072.63;;;8.74
48854;BMP280;34673;52.808;17.856;2024-03-08T11:18:37;101066.56;;;8.69
48854;BMP280;34673;52.808;17.856;2024-03-08T11:21:08;101067.38;;;8.68
48854;BMP280;34673;52.808;17.856;2024-03-08T11:23:40;101063.84;;;8.60
48854;BMP280;34673;52.808;17.856;2024-03-08T11:26:20;101062.94;;;8.53
48854;BMP280;34673;52.808;17.856;2024-03-08T11:28:47;101065.44;;;8.49
48854;BMP280;34673;52.808;17.856;2024-03-08T11:33:49;101055.84;;;8.37
48854;BMP280;34673;52.808;17.856;2024-03-08T11:36:21;101051.47;;;8.31
48854;BMP280;34673;52.808;17.856;2024-03-08T11:38:49;101060.22;;;8.42
48854;BMP280;34673;52.808;17.856;2024-03-08T11:41:20;101044.75;;;8.42
48854;BMP280;34673;52.808;17.856;2024-03-08T11:43:49;101043.94;;;8.47
48854;BMP280;34673;52.808;17.856;2024-03-08T11:46:17;101043.06;;;8.45
48854;BMP280;34673;52.808;17.856;2024-03-08T11:48:48;101034.47;;;8.46
48854;BMP280;34673;52.808;17.856;2024-03-08T11:51:15;101036.25;;;8.50
48854;BMP280;34673;52.808;17.856;2024-03-08T11:53:46;101031.13;;;8.53
48854;BMP280;34673;52.808;17.856;2024-03-08T11:56:16;101036.31;;;8.56
48854;BMP280;34673;52.808;17.856;2024-03-08T11:58:53;101025.88;;;8.47
48854;BMP280;34673;52.808;17.856;2024-03-08T12:01:20;101024.16;;;8.46
48854;BMP280;34673;52.808;17.856;2024-03-08T12:03:53;101024.25;;;8.55
48854;BMP280;34673;52.808;17.856;2024-03-08T12:06:20;101027.75;;;8.60
48854;BMP280;34673;52.808;17.856;2024-03-08T12:08:47;101025.19;;;8.58
48854;BMP280;34673;52.808;17.856;2024-03-08T12:11:17;101022.56;;;8.57
48854;BMP280;34673;52.808;17.856;2024-03-08T12:13:51;101016.63;;;8.61
48854;BMP280;34673;52.808;17.856;2024-03-08T12:16:19;101014.06;;;8.64
48854;BMP280;34673;52.808;17.856;2024-03-08T12:18:50;101009.75;;;8.64
48854;BMP280;34673;52.808;17.856;2024-03-08T12:21:18;101008.03;;;8.63
48854;BMP280;34673;52.808;17.856;2024-03-08T12:24:04;101007.06;;;8.54
48854;BMP280;34673;52.808;17.856;2024-03-08T12:26:32;101003.63;;;8.55
48854;BMP280;34673;52.808;17.856;2024-03-08T12:29:27;101003.66;;;8.56
48854;BMP280;34673;52.808;17.856;2024-03-08T12:31:57;101000.19;;;8.53
48854;BMP280;34673;52.808;17.856;2024-03-08T12:34:28;100994.13;;;8.49
48854;BMP280;34673;52.808;17.856;2024-03-08T12:36:55;100994.94;;;8.47
48854;BMP280;34673;52.808;17.856;2024-03-08T12:39:22;100984.50;;;8.37
48854;BMP280;34673;52.808;17.856;2024-03-08T12:41:54;100998.31;;;8.39
48854;BMP280;34673;52.808;17.856;2024-03-08T12:44:21;100986.31;;;8.41
48854;BMP280;34673;52.808;17.856;2024-03-08T12:46:49;100982.88;;;8.42
48854;BMP280;34673;52.808;17.856;2024-03-08T12:49:19;100986.22;;;8.38
48854;BMP280;34673;52.808;17.856;2024-03-08T12:51:49;100979.31;;;8.31
48854;BMP280;34673;52.808;17.856;2024-03-08T12:54:17;100979.28;;;8.28
48854;BMP280;34673;52.808;17.856;2024-03-08T12:56:44;100970.66;;;8.26
48854;BMP280;34673;52.808;17.856;2024-03-08T12:59:11;100982.63;;;8.24
48854;BMP280;34673;52.808;17.856;2024-03-08T13:01:39;100975.78;;;8.23
48854;BMP280;34673;52.808;17.856;2024-03-08T13:04:06;100968.81;;;8.16
48854;BMP280;34673;52.808;17.856;2024-03-08T13:06:38;100970.53;;;8.17
48854;BMP280;34673;52.808;17.856;2024-03-08T13:09:05;100970.53;;;8.17
48854;BMP280;34673;52.808;17.856;2024-03-08T13:11:32;100961.97;;;8.19
48854;BMP280;34673;52.808;17.856;2024-03-08T13:14:04;100967.13;;;8.18
48854;BMP280;34673;52.808;17.856;2024-03-08T13:16:34;100958.53;;;8.19
48854;BMP280;34673;52.808;17.856;2024-03-08T13:19:02;100962.88;;;8.23
48854;BMP280;34673;52.808;17.856;2024-03-08T13:21:29;100951.72;;;8.24
48854;BMP280;34673;52.808;17.856;2024-03-08T13:23:57;100948.25;;;8.22
48854;BMP280;34673;52.808;17.856;2024-03-08T13:26:26;100955.06;;;8.17
48854;BMP280;34673;52.808;17.856;2024-03-08T13:29:00;100949.84;;;8.11
48854;BMP280;34673;52.808;17.856;2024-03-08T13:31:27;100947.25;;;8.08
48854;BMP280;34673;52.808;17.856;2024-03-08T13:33:55;100949.81;;;8.08
48854;BMP280;34673;52.808;17.856;2024-03-08T13:36:25;100937.69;;;8.00
48854;BMP280;34673;52.808;17.856;2024-03-08T13:38:56;100930.75;;;7.93
48854;BMP280;34673;52.808;17.856;2024-03-08T13:41:26;100929.00;;;7.92
48854;BMP280;34673;52.808;17.856;2024-03-08T13:43:57;100930.72;;;7.90
48854;BMP280;34673;52.808;17.856;2024-03-08T13:46:24;100923.84;;;7.92
48854;BMP280;34673;52.808;17.856;2024-03-08T13:48:52;100928.19;;;7.95
48854;BMP280;34673;52.808;17.856;2024-03-08T13:51:27;100926.44;;;7.91
48854;BMP280;34673;52.808;17.856;2024-03-08T13:53:55;100922.09;;;7.88
48854;BMP280;34673;52.808;17.856;2024-03-08T13:56:22;100922.91;;;7.84
48854;BMP280;34673;52.808;17.856;2024-03-08T13:58:49;100916.88;;;7.82
48854;BMP280;34673;52.808;17.856;2024-03-08T14:01:19;100915.97;;;7.78
48854;BMP280;34673;52.808;17.856;2024-03-08T14:03:48;100907.31;;;7.73
48854;BMP280;34673;52.808;17.856;2024-03-08T14:06:15;100908.22;;;7.74
48854;BMP280;34673;52.808;17.856;2024-03-08T14:08:49;100909.88;;;7.72